METAR Data
IDs: Format: Raw Decoded Include TAF

Data at: 1447 UTC 25 Jan 2020

METAR for:KMUT (Muscatine Muni, IA, US)
Text:KMUT 251435Z AUTO 00000G15KT 7SM OVC011 00/M02 A2997 RMK AO2
Temperature: 0.0°C ( 32°F)
Dewpoint: -2.0°C ( 28°F) [RH = 86%]
Pressure (altimeter):29.97 inches Hg (1015.0 mb)
Winds:calm
Visibility: 7 sm ( 11 km)
Ceiling:1100 feet AGL
Clouds: overcast cloud deck at 1100 feet AGL
QC Flag:automated observation with no human augmentation